createdAt,value
2019-05-30T05:34:30.975Z,99.90
2019-05-30T05:47:51.628Z,99.90
2019-05-30T05:57:04.134Z,99.90
2019-05-30T06:01:38.015Z,99.90
2019-05-30T06:03:08.077Z,99.90
2019-05-30T06:09:18.269Z,99.90
2019-05-30T06:15:24.998Z,99.90
2019-05-30T06:24:14.400Z,99.90
2019-05-30T06:26:47.730Z,99.90
2019-05-30T06:33:07.973Z,99.90
2019-05-30T06:35:42.089Z,99.90
2019-05-30T06:38:23.565Z,99.90
2019-05-30T06:43:55.947Z,99.90
2019-05-30T06:46:31.280Z,99.90
2019-05-30T06:49:11.530Z,99.90
2019-05-30T06:54:47.243Z,99.90
2019-05-30T06:57:45.461Z,99.90
2019-05-30T07:00:32.879Z,99.90
2019-05-30T07:03:01.954Z,99.90
2019-05-30T07:05:39.171Z,99.90
2019-05-30T07:08:20.583Z,99.90
2019-05-30T07:11:10.349Z,99.90
2019-05-30T07:13:41.308Z,99.90
2019-05-30T07:16:34.629Z,99.90
2019-05-30T07:28:21.423Z,99.90
2019-05-30T07:34:32.346Z,99.90
2019-05-30T07:37:46.879Z,94.80
2019-05-30T07:50:49.449Z,96.80
2019-05-30T08:00:50.209Z,89.50
2019-05-30T08:10:05.612Z,85.50
2019-05-30T08:16:16.445Z,90.30
2019-05-30T08:18:56.680Z,92.90
2019-05-30T08:21:27.836Z,87.20
2019-05-30T08:24:06.487Z,95.00
2019-05-30T08:26:48.631Z,92.80
2019-05-30T08:29:24.417Z,91.00
2019-05-30T08:35:18.787Z,85.50
2019-05-30T08:37:57.197Z,90.60
2019-05-30T08:40:37.693Z,91.80
2019-05-30T08:43:35.589Z,90.10
2019-05-30T08:46:15.019Z,92.70
2019-05-30T08:48:44.473Z,91.50
2019-05-30T08:51:55.878Z,91.60
2019-05-30T08:57:11.158Z,93.50
2019-05-30T08:59:48.955Z,94.70
2019-05-30T09:02:18.416Z,94.20
2019-05-30T09:04:49.922Z,94.80
2019-05-30T09:07:19.280Z,95.40
2019-05-30T09:09:48.835Z,94.80
2019-05-30T09:12:18.404Z,96.90
2019-05-30T09:14:48.390Z,97.30
2019-05-30T09:17:17.845Z,97.80
2019-05-30T09:19:47.534Z,98.20
2019-05-30T09:22:16.980Z,97.30
2019-05-30T09:24:46.437Z,96.10
2019-05-30T09:27:15.894Z,97.90
2019-05-30T09:29:46.201Z,96.10
2019-05-30T09:32:15.728Z,92.00
2019-05-30T09:34:45.189Z,95.00
2019-05-30T09:37:14.623Z,96.80
2019-05-30T09:39:45.450Z,97.00
2019-05-30T09:42:15.018Z,97.00
2019-05-30T09:44:47.944Z,87.70
2019-05-30T09:47:15.561Z,78.40
2019-05-30T09:49:45.026Z,77.70
2019-05-30T09:52:14.546Z,90.60
2019-05-30T09:54:44.312Z,68.20
2019-05-30T09:57:13.858Z,90.20
2019-05-30T09:59:45.409Z,94.10
2019-05-30T10:02:15.532Z,97.10
2019-05-30T10:04:45.783Z,95.50
2019-05-30T10:07:16.310Z,96.90
2019-05-30T10:09:47.034Z,91.50
2019-05-30T10:12:16.599Z,95.00
2019-05-30T10:14:48.550Z,93.30
2019-05-30T10:17:18.185Z,95.30
2019-05-30T10:19:48.711Z,97.10
2019-05-30T10:22:18.199Z,99.90
2019-05-30T10:24:49.102Z,99.30
2019-05-30T10:27:18.561Z,93.70
2019-05-30T10:29:49.407Z,96.10
2019-05-30T10:32:19.041Z,96.00
2019-05-30T10:34:49.550Z,95.40
2019-05-30T10:37:19.057Z,93.20
2019-05-30T10:39:49.211Z,95.80
2019-05-30T10:42:19.800Z,97.20
2019-05-30T10:44:49.934Z,95.10
2019-05-30T10:47:20.584Z,93.60
2019-05-30T10:49:51.368Z,91.90
2019-05-30T10:52:20.865Z,92.70
2019-05-30T10:54:51.402Z,95.60
2019-05-30T10:57:21.161Z,91.20
2019-05-30T10:59:50.863Z,90.10
2019-05-30T11:02:21.663Z,89.00
2019-05-30T11:04:51.389Z,92.60
2019-05-30T11:07:24.553Z,78.00
2019-05-30T11:09:57.449Z,91.60
2019-05-30T11:12:26.972Z,92.90
2019-05-30T11:14:57.854Z,89.20
2019-05-30T11:17:27.379Z,69.60
2019-05-30T11:19:57.997Z,56.30
2019-05-30T11:22:27.630Z,82.40
2019-05-30T11:24:57.044Z,57.20
2019-05-30T11:27:28.478Z,67.80
2019-05-30T11:29:58.983Z,62.80
2019-05-30T11:32:28.495Z,50.00
2019-05-30T11:34:59.496Z,51.30
2019-05-30T11:37:30.185Z,48.10
2019-05-30T11:39:59.699Z,45.80
2019-05-30T11:42:29.097Z,48.90
2019-05-30T11:44:59.864Z,47.10
2019-05-30T11:47:29.637Z,52.60
2019-05-30T11:50:00.348Z,46.30
2019-05-30T11:52:29.952Z,48.20
2019-05-30T11:55:00.307Z,50.50
2019-05-30T11:57:30.555Z,50.30
2019-05-30T12:00:00.534Z,52.10
2019-05-30T12:02:30.110Z,54.00
2019-05-30T12:05:00.733Z,55.80
2019-05-30T12:07:36.183Z,54.90
2019-05-30T12:10:01.483Z,53.80
2019-05-30T12:12:31.037Z,52.90
2019-05-30T12:15:01.657Z,53.40
2019-05-30T12:17:32.655Z,48.60
2019-05-30T12:20:02.091Z,51.80
2019-05-30T12:22:31.565Z,49.00
2019-05-30T12:25:02.583Z,44.40
2019-05-30T12:27:32.276Z,42.30
2019-05-30T12:30:02.661Z,42.40
2019-05-30T12:32:32.282Z,43.60
2019-05-30T12:35:02.856Z,46.20
2019-05-30T12:37:33.457Z,50.10
2019-05-30T12:40:03.338Z,55.60
2019-05-30T12:42:32.824Z,58.10
2019-05-30T12:45:05.502Z,54.00
2019-05-30T12:47:33.498Z,53.10
2019-05-30T12:50:03.560Z,55.50
2019-05-30T12:52:33.171Z,44.70
2019-05-30T12:55:03.168Z,48.10
2019-05-30T12:57:32.791Z,45.20
2019-05-30T13:00:13.394Z,48.30
2019-05-30T13:02:35.837Z,45.90
2019-05-30T13:05:10.913Z,49.80
2019-05-30T13:07:44.694Z,51.00
2019-05-30T13:10:15.880Z,48.80
2019-05-30T13:12:45.344Z,52.80
2019-05-30T13:15:15.613Z,45.80
2019-05-30T13:17:45.095Z,44.90
2019-05-30T13:20:15.387Z,45.80
2019-05-30T13:22:44.916Z,44.90
2019-05-30T13:25:16.878Z,45.10
2019-05-30T13:27:46.477Z,49.50
2019-05-30T13:30:16.148Z,46.80
2019-05-30T13:32:45.640Z,47.20
2019-05-30T13:35:15.419Z,49.70
2019-05-30T13:37:44.974Z,49.40
2019-05-30T13:40:25.048Z,49.80
2019-05-30T13:42:45.731Z,48.00
2019-05-30T13:45:15.500Z,47.30
2019-05-30T13:47:44.978Z,43.80
2019-05-30T13:50:14.765Z,46.10
2019-05-30T13:52:44.212Z,46.90
2019-05-30T13:55:13.814Z,48.80
2019-05-30T13:57:46.039Z,52.20
2019-05-30T14:00:17.499Z,51.70
2019-05-30T14:02:48.394Z,48.30
2019-05-30T14:05:18.060Z,50.70
2019-05-30T14:07:47.613Z,52.30
2019-05-30T14:10:17.699Z,52.00
2019-05-30T14:12:47.229Z,53.00
2019-05-30T14:15:17.108Z,56.30
2019-05-30T14:17:46.886Z,50.00
2019-05-30T14:20:17.069Z,48.20
2019-05-30T14:22:46.526Z,50.20
2019-05-30T14:25:16.335Z,51.90
2019-05-30T14:27:45.761Z,51.20
2019-05-30T14:30:15.536Z,52.20
2019-05-30T14:32:45.010Z,51.70
2019-05-30T14:35:15.580Z,52.80
2019-05-30T14:37:45.041Z,52.90
2019-05-30T14:40:15.687Z,52.70
2019-05-30T14:42:45.140Z,53.20
2019-05-30T14:45:17.305Z,55.10
2019-05-30T14:47:46.776Z,51.40
2019-05-30T14:50:17.672Z,53.00
2019-05-30T14:52:47.452Z,53.60
2019-05-30T14:55:17.453Z,53.00
2019-05-30T14:57:47.090Z,50.60
2019-05-30T15:00:18.150Z,55.10
2019-05-30T15:02:47.671Z,55.70
2019-05-30T15:05:17.365Z,55.70
2019-05-30T15:07:46.822Z,55.10
2019-05-30T15:10:17.256Z,54.00
2019-05-30T15:12:46.674Z,58.60
2019-05-30T15:15:18.685Z,59.80
2019-05-30T15:17:47.834Z,62.50
2019-05-30T15:20:17.883Z,58.90
2019-05-30T15:22:47.491Z,55.30
2019-05-30T15:25:18.132Z,57.90
2019-05-30T15:27:47.887Z,54.80
2019-05-30T15:30:17.569Z,55.50
2019-05-30T15:32:47.119Z,58.60
2019-05-30T15:35:19.060Z,58.20
2019-05-30T15:37:48.089Z,55.20
2019-05-30T15:40:17.860Z,54.60
2019-05-30T15:42:47.345Z,55.60
2019-05-30T15:45:18.701Z,57.30
2019-05-30T15:47:49.124Z,57.50
2019-05-30T15:50:20.066Z,60.70
2019-05-30T15:52:49.537Z,60.60
2019-05-30T15:55:19.330Z,61.80
2019-05-30T15:57:50.223Z,61.60
2019-05-30T16:00:21.266Z,50.50
2019-05-30T16:02:50.733Z,44.00
2019-05-30T16:05:21.422Z,42.40
2019-05-30T16:07:50.881Z,41.90
2019-05-30T16:10:21.107Z,40.30
2019-05-30T16:12:50.600Z,43.30
2019-05-30T16:15:21.637Z,45.30
2019-05-30T16:17:52.302Z,48.40
2019-05-30T16:20:22.067Z,50.10
2019-05-30T16:22:51.716Z,53.40
2019-05-30T16:25:21.692Z,56.10
2019-05-30T16:27:51.252Z,55.50
2019-05-30T16:30:24.386Z,54.40
2019-05-30T16:32:51.901Z,58.00
2019-05-30T16:35:22.248Z,62.50
2019-05-30T16:37:51.857Z,63.30
2019-05-30T16:40:22.408Z,60.30
2019-05-30T16:42:51.938Z,58.90
2019-05-30T16:45:24.729Z,61.50
2019-05-30T16:47:52.700Z,56.40
2019-05-30T16:50:24.005Z,50.20
2019-05-30T16:52:53.522Z,51.90
2019-05-30T16:55:23.440Z,53.00
2019-05-30T16:57:53.164Z,50.70
2019-05-30T17:00:24.936Z,49.60
2019-05-30T17:02:54.376Z,44.60
2019-05-30T17:05:23.919Z,43.80
2019-05-30T17:07:53.353Z,47.30
2019-05-30T17:10:29.601Z,49.80
2019-05-30T17:12:54.124Z,54.90
2019-05-30T17:15:23.991Z,53.50
2019-05-30T17:17:53.494Z,53.90
2019-05-30T17:20:23.098Z,54.30
2019-05-30T17:22:52.622Z,55.90
2019-05-30T17:25:23.022Z,59.30
2019-05-30T17:27:52.917Z,62.10
2019-05-30T17:30:23.696Z,57.80
2019-05-30T17:32:54.423Z,52.00
2019-05-30T17:35:26.185Z,51.00
2019-05-30T17:37:55.708Z,53.60
2019-05-30T17:40:41.296Z,55.50
2019-05-30T17:42:56.504Z,54.80
2019-05-30T17:45:27.050Z,57.00
2019-05-30T17:48:07.546Z,59.20
2019-05-30T17:50:30.102Z,61.60
2019-05-30T17:52:59.656Z,62.90
2019-05-30T17:55:30.120Z,64.60
2019-05-30T17:57:59.587Z,66.10
2019-05-30T18:00:30.649Z,69.30
2019-05-30T18:03:00.215Z,69.50
2019-05-30T18:05:30.855Z,71.40
2019-05-30T18:08:00.464Z,75.00
2019-05-30T18:10:31.076Z,77.90
2019-05-30T18:13:01.799Z,80.90
2019-05-30T18:15:32.373Z,83.80
2019-05-30T18:18:01.891Z,87.00
2019-05-30T18:20:31.679Z,90.00
2019-05-30T18:23:02.282Z,91.20
2019-05-30T18:25:31.914Z,92.20
2019-05-30T18:28:01.368Z,93.10
2019-05-30T18:30:39.225Z,94.00
2019-05-30T18:33:08.751Z,95.30
2019-05-30T18:35:38.350Z,95.80
2019-05-30T18:38:07.916Z,96.90
2019-05-30T18:40:38.469Z,97.40
2019-05-30T18:43:08.115Z,97.80
2019-05-30T18:45:42.097Z,98.60
2019-05-30T18:48:12.477Z,99.10
2019-05-30T18:50:42.099Z,99.30
2019-05-30T18:53:11.664Z,99.40
2019-05-30T18:55:41.145Z,99.30
2019-05-30T18:58:10.644Z,99.50
2019-05-30T19:00:40.245Z,99.90
2019-05-30T19:03:09.820Z,99.80
2019-05-30T19:05:39.417Z,99.90
2019-05-30T19:08:09.908Z,99.90
2019-05-30T19:10:39.364Z,99.90
2019-05-30T19:13:08.818Z,99.90
2019-05-30T19:15:38.340Z,99.90
2019-05-30T19:18:09.273Z,99.90
2019-05-30T19:20:39.135Z,99.90
2019-05-30T19:23:08.582Z,99.90
2019-05-30T19:25:38.189Z,99.90
2019-05-30T19:28:07.695Z,99.90
2019-05-30T19:30:40.845Z,99.90
2019-05-30T19:33:08.307Z,99.90
2019-05-30T19:35:37.851Z,99.90
2019-05-30T19:38:08.405Z,99.90
2019-05-30T19:40:38.105Z,99.90
2019-05-30T19:43:07.705Z,99.90
2019-05-30T19:45:38.331Z,99.90
2019-05-30T19:48:07.829Z,99.90
2019-05-30T19:50:37.267Z,99.90
2019-05-30T19:53:06.804Z,99.90
2019-05-30T19:55:37.421Z,99.90
2019-05-30T19:58:07.104Z,99.90
2019-05-30T20:00:54.365Z,99.90
2019-05-30T20:03:07.726Z,99.90
2019-05-30T20:05:38.901Z,99.90
2019-05-30T20:08:08.549Z,99.90
2019-05-30T20:10:39.124Z,99.90
2019-05-30T20:13:08.816Z,99.90
2019-05-30T20:15:39.446Z,99.90
2019-05-30T20:18:09.080Z,99.90
2019-05-30T20:20:54.099Z,99.90
2019-05-30T20:23:09.747Z,99.90
2019-05-30T20:25:43.698Z,99.90
2019-05-30T20:28:10.345Z,99.90
2019-05-30T20:30:40.979Z,99.90
2019-05-30T20:33:10.679Z,99.90
2019-05-30T20:35:41.673Z,99.90
2019-05-30T20:38:11.360Z,99.90
2019-05-30T20:40:40.963Z,99.90
2019-05-30T20:43:10.439Z,99.90
2019-05-30T20:45:45.679Z,99.90
2019-05-30T20:48:10.974Z,99.90
2019-05-30T20:50:41.192Z,99.90
2019-05-30T20:53:10.680Z,99.90
2019-05-30T20:55:40.441Z,99.90
2019-05-30T20:58:10.055Z,99.90
2019-05-30T21:00:40.466Z,99.90
2019-05-30T21:03:11.304Z,99.90
2019-05-30T21:05:43.924Z,99.90
2019-05-30T21:08:13.670Z,99.90
2019-05-30T21:10:44.744Z,99.90
2019-05-30T21:13:14.268Z,99.90
2019-05-30T21:15:46.543Z,99.90
2019-05-30T21:18:18.400Z,99.90
2019-05-30T21:20:48.037Z,99.90
2019-05-30T21:23:17.571Z,99.90
2019-05-30T21:25:47.434Z,99.90
2019-05-30T21:28:16.987Z,99.90
2019-05-30T21:30:47.478Z,99.90
2019-05-30T21:33:18.206Z,99.90
2019-05-30T21:35:48.147Z,99.90
2019-05-30T21:38:17.733Z,99.90
2019-05-30T21:40:48.389Z,99.90
2019-05-30T21:43:18.285Z,99.90
2019-05-30T21:45:48.863Z,99.90
2019-05-30T21:48:18.493Z,99.90
2019-05-30T21:50:49.148Z,99.90
2019-05-30T21:53:18.996Z,99.90
2019-05-30T21:55:48.425Z,99.90
2019-05-30T21:58:17.896Z,99.90
2019-05-30T22:00:50.875Z,99.90
2019-05-30T22:03:22.224Z,99.90
2019-05-30T22:05:52.065Z,99.90
2019-05-30T22:08:21.761Z,99.90
2019-05-30T22:10:51.766Z,99.90
2019-05-30T22:13:22.609Z,99.90
2019-05-30T22:15:52.200Z,99.90
2019-05-30T22:18:21.756Z,99.90
2019-05-30T22:20:52.375Z,99.90
2019-05-30T22:23:24.601Z,99.90
2019-05-30T22:25:54.041Z,99.90
2019-05-30T22:28:23.579Z,99.90
2019-05-30T22:30:53.025Z,99.90
2019-05-30T22:33:22.486Z,99.90
2019-05-30T22:35:53.286Z,99.90
2019-05-30T22:38:22.899Z,99.90
2019-05-30T22:40:52.387Z,99.90
2019-05-30T22:43:25.503Z,99.90
2019-05-30T22:45:54.035Z,99.90
2019-05-30T22:48:23.502Z,99.90
2019-05-30T22:50:53.017Z,99.90
2019-05-30T22:53:22.550Z,99.90
2019-05-30T22:55:53.502Z,99.90
2019-05-30T22:58:24.257Z,99.90
2019-05-30T23:00:54.079Z,99.90
2019-05-30T23:03:23.671Z,99.90
2019-05-30T23:05:53.375Z,99.90
2019-05-30T23:08:22.896Z,99.90
2019-05-30T23:10:52.336Z,99.90
2019-05-30T23:13:21.788Z,99.90
2019-05-30T23:15:52.713Z,99.90
2019-05-30T23:18:23.322Z,99.90
2019-05-30T23:20:52.812Z,99.90
2019-05-30T23:23:22.298Z,99.90
2019-05-30T23:25:51.743Z,99.90
2019-05-30T23:28:21.214Z,99.90
2019-05-30T23:30:51.874Z,99.90
2019-05-30T23:33:21.511Z,99.90
2019-05-30T23:35:50.946Z,99.90
2019-05-30T23:38:20.419Z,99.90
2019-05-30T23:40:50.962Z,99.90
2019-05-30T23:43:20.534Z,99.90
2019-05-30T23:45:51.274Z,99.90
2019-05-30T23:48:20.833Z,99.90
2019-05-30T23:50:50.269Z,99.90
2019-05-30T23:53:19.725Z,99.90
2019-05-30T23:55:50.188Z,99.90
2019-05-30T23:58:19.704Z,99.90
